sensor_id;sensor_type;location;lat;lon;timestamp;P1;durP1;ratioP1;P2;durP2;ratioP2
18114;SDS011;9184;54.390;18.620;2023-08-01T00:00:11;8.48;;;4.95;;
18114;SDS011;9184;54.390;18.620;2023-08-01T00:00:41;8.70;;;5.82;;
18114;SDS011;9184;54.390;18.620;2023-08-01T00:01:12;9.18;;;5.40;;
18114;SDS011;9184;54.390;18.620;2023-08-01T00:01:44;7.80;;;4.95;;
18114;SDS011;9184;54.390;18.620;2023-08-01T00:02:14;8.70;;;5.65;;
18114;SDS011;9184;54.390;18.620;2023-08-01T00:02:45;8.80;;;4.72;;
18114;SDS011;9184;54.390;18.620;2023-08-01T00:03:15;6.40;;;5.03;;
18114;SDS011;9184;54.390;18.620;2023-08-01T00:03:47;12.18;;;5.43;;
18114;SDS011;9184;54.390;18.620;2023-08-01T00:04:17;9.75;;;5.50;;
18114;SDS011;9184;54.390;18.620;2023-08-01T00:04:48;7.50;;;5.00;;
18114;SDS011;9184;54.390;18.620;2023-08-01T00:05:18;8.38;;;5.25;;
18114;SDS011;9184;54.390;18.620;2023-08-01T00:05:50;8.13;;;5.05;;
18114;SDS011;9184;54.390;18.620;2023-08-01T00:06:20;8.07;;;5.15;;
18114;SDS011;9184;54.390;18.620;2023-08-01T00:06:52;11.68;;;5.35;;
18114;SDS011;9184;54.390;18.620;2023-08-01T00:07:23;10.52;;;5.03;;
18114;SDS011;9184;54.390;18.620;2023-08-01T00:07:54;8.25;;;5.03;;
18114;SDS011;9184;54.390;18.620;2023-08-01T00:08:25;9.73;;;5.90;;
18114;SDS011;9184;54.390;18.620;2023-08-01T00:08:55;8.63;;;4.70;;
18114;SDS011;9184;54.390;18.620;2023-08-01T00:09:27;6.38;;;5.00;;
18114;SDS011;9184;54.390;18.620;2023-08-01T00:09:59;7.40;;;5.80;;
18114;SDS011;9184;54.390;18.620;2023-08-01T00:10:29;11.90;;;6.03;;
18114;SDS011;9184;54.390;18.620;2023-08-01T00:10:59;11.30;;;6.00;;
18114;SDS011;9184;54.390;18.620;2023-08-01T00:11:31;7.40;;;5.50;;
18114;SDS011;9184;54.390;18.620;2023-08-01T00:12:01;10.35;;;5.18;;
18114;SDS011;9184;54.390;18.620;2023-08-01T00:12:32;11.15;;;5.30;;
18114;SDS011;9184;54.390;18.620;2023-08-01T00:13:02;7.30;;;5.38;;
18114;SDS011;9184;54.390;18.620;2023-08-01T00:13:34;10.48;;;6.00;;
18114;SDS011;9184;54.390;18.620;2023-08-01T00:14:04;9.05;;;5.05;;
18114;SDS011;9184;54.390;18.620;2023-08-01T00:14:35;10.23;;;5.55;;
18114;SDS011;9184;54.390;18.620;2023-08-01T00:15:06;8.20;;;5.00;;
18114;SDS011;9184;54.390;18.620;2023-08-01T00:15:38;5.55;;;4.57;;
18114;SDS011;9184;54.390;18.620;2023-08-01T00:16:08;8.95;;;5.45;;
18114;SDS011;9184;54.390;18.620;2023-08-01T00:16:39;7.68;;;5.18;;
18114;SDS011;9184;54.390;18.620;2023-08-01T00:17:09;7.13;;;4.28;;
18114;SDS011;9184;54.390;18.620;2023-08-01T00:17:41;7.80;;;4.93;;
18114;SDS011;9184;54.390;18.620;2023-08-01T00:18:11;8.02;;;4.57;;
18114;SDS011;9184;54.390;18.620;2023-08-01T00:18:42;8.63;;;5.40;;
18114;SDS011;9184;54.390;18.620;2023-08-01T00:19:13;6.47;;;4.88;;
18114;SDS011;9184;54.390;18.620;2023-08-01T00:19:45;8.38;;;4.82;;
18114;SDS011;9184;54.390;18.620;2023-08-01T00:20:15;8.85;;;4.97;;
18114;SDS011;9184;54.390;18.620;2023-08-01T00:20:46;9.00;;;4.65;;
18114;SDS011;9184;54.390;18.620;2023-08-01T00:21:17;7.47;;;5.35;;
18114;SDS011;9184;54.390;18.620;2023-08-01T00:21:49;8.00;;;4.90;;
18114;SDS011;9184;54.390;18.620;2023-08-01T00:22:19;7.90;;;5.07;;
18114;SDS011;9184;54.390;18.620;2023-08-01T00:22:50;6.88;;;5.15;;
18114;SDS011;9184;54.390;18.620;2023-08-01T00:23:21;5.57;;;5.00;;
18114;SDS011;9184;54.390;18.620;2023-08-01T00:23:52;8.35;;;5.25;;
18114;SDS011;9184;54.390;18.620;2023-08-01T00:24:22;9.02;;;5.57;;
18114;SDS011;9184;54.390;18.620;2023-08-01T00:24:53;9.05;;;4.85;;
18114;SDS011;9184;54.390;18.620;2023-08-01T00:25:25;7.15;;;4.88;;
18114;SDS011;9184;54.390;18.620;2023-08-01T00:25:56;11.23;;;5.97;;
18114;SDS011;9184;54.390;18.620;2023-08-01T00:26:27;12.00;;;5.55;;
18114;SDS011;9184;54.390;18.620;2023-08-01T00:26:57;7.78;;;6.18;;
18114;SDS011;9184;54.390;18.620;2023-08-01T00:27:28;7.20;;;5.07;;
18114;SDS011;9184;54.390;18.620;2023-08-01T00:27:59;18.63;;;4.97;;
18114;SDS011;9184;54.390;18.620;2023-08-01T00:28:30;9.15;;;5.43;;
18114;SDS011;9184;54.390;18.620;2023-08-01T00:29:00;8.18;;;5.35;;
18114;SDS011;9184;54.390;18.620;2023-08-01T00:29:32;6.85;;;5.35;;
18114;SDS011;9184;54.390;18.620;2023-08-01T00:30:03;11.30;;;5.40;;
18114;SDS011;9184;54.390;18.620;2023-08-01T00:30:33;7.72;;;5.22;;
18114;SDS011;9184;54.390;18.620;2023-08-01T00:31:04;9.13;;;5.10;;
18114;SDS011;9184;54.390;18.620;2023-08-01T00:31:35;8.55;;;5.57;;
18114;SDS011;9184;54.390;18.620;2023-08-01T00:32:06;7.05;;;5.32;;
18114;SDS011;9184;54.390;18.620;2023-08-01T00:32:37;6.75;;;5.07;;
18114;SDS011;9184;54.390;18.620;2023-08-01T00:33:07;6.43;;;4.63;;
18114;SDS011;9184;54.390;18.620;2023-08-01T00:33:39;15.40;;;5.20;;
18114;SDS011;9184;54.390;18.620;2023-08-01T00:34:09;7.30;;;5.22;;
18114;SDS011;9184;54.390;18.620;2023-08-01T00:34:39;8.95;;;4.72;;
18114;SDS011;9184;54.390;18.620;2023-08-01T00:35:10;6.30;;;4.78;;
18114;SDS011;9184;54.390;18.620;2023-08-01T00:35:41;8.45;;;5.43;;
18114;SDS011;9184;54.390;18.620;2023-08-01T00:36:12;9.75;;;5.43;;
18114;SDS011;9184;54.390;18.620;2023-08-01T00:36:42;9.43;;;5.30;;
18114;SDS011;9184;54.390;18.620;2023-08-01T00:37:13;7.47;;;4.97;;
18114;SDS011;9184;54.390;18.620;2023-08-01T00:37:44;7.40;;;5.00;;
18114;SDS011;9184;54.390;18.620;2023-08-01T00:38:15;7.30;;;5.03;;
18114;SDS011;9184;54.390;18.620;2023-08-01T00:38:45;6.53;;;4.95;;
18114;SDS011;9184;54.390;18.620;2023-08-01T00:39:17;7.05;;;5.03;;
18114;SDS011;9184;54.390;18.620;2023-08-01T00:39:47;10.73;;;5.47;;
18114;SDS011;9184;54.390;18.620;2023-08-01T00:40:18;8.95;;;5.20;;
18114;SDS011;9184;54.390;18.620;2023-08-01T00:40:50;9.23;;;5.05;;
18114;SDS011;9184;54.390;18.620;2023-08-01T00:41:21;9.82;;;4.90;;
18114;SDS011;9184;54.390;18.620;2023-08-01T00:41:52;9.02;;;5.15;;
18114;SDS011;9184;54.390;18.620;2023-08-01T00:42:22;7.63;;;5.05;;
18114;SDS011;9184;54.390;18.620;2023-08-01T00:42:53;6.22;;;4.45;;
18114;SDS011;9184;54.390;18.620;2023-08-01T00:43:26;9.00;;;5.43;;
18114;SDS011;9184;54.390;18.620;2023-08-01T00:43:57;7.40;;;4.25;;
18114;SDS011;9184;54.390;18.620;2023-08-01T00:44:27;7.38;;;4.50;;
18114;SDS011;9184;54.390;18.620;2023-08-01T00:44:58;11.23;;;5.07;;
18114;SDS011;9184;54.390;18.620;2023-08-01T00:45:30;8.38;;;4.88;;
18114;SDS011;9184;54.390;18.620;2023-08-01T00:46:02;10.15;;;5.32;;
18114;SDS011;9184;54.390;18.620;2023-08-01T00:46:33;7.63;;;5.43;;
18114;SDS011;9184;54.390;18.620;2023-08-01T00:47:04;7.30;;;4.53;;
18114;SDS011;9184;54.390;18.620;2023-08-01T00:47:35;8.57;;;4.35;;
18114;SDS011;9184;54.390;18.620;2023-08-01T00:48:06;8.82;;;5.43;;
18114;SDS011;9184;54.390;18.620;2023-08-01T00:48:36;7.82;;;5.20;;
18114;SDS011;9184;54.390;18.620;2023-08-01T00:49:07;7.28;;;5.05;;
18114;SDS011;9184;54.390;18.620;2023-08-01T00:49:38;9.27;;;5.32;;
18114;SDS011;9184;54.390;18.620;2023-08-01T00:50:09;8.52;;;5.70;;
18114;SDS011;9184;54.390;18.620;2023-08-01T00:50:40;7.00;;;4.82;;
18114;SDS011;9184;54.390;18.620;2023-08-01T00:51:10;8.40;;;5.00;;
18114;SDS011;9184;54.390;18.620;2023-08-01T00:51:42;6.82;;;5.10;;
18114;SDS011;9184;54.390;18.620;2023-08-01T00:52:13;5.82;;;4.72;;
18114;SDS011;9184;54.390;18.620;2023-08-01T00:52:44;9.68;;;4.88;;
18114;SDS011;9184;54.390;18.620;2023-08-01T00:53:14;8.43;;;5.15;;
18114;SDS011;9184;54.390;18.620;2023-08-01T00:53:46;11.20;;;5.60;;
18114;SDS011;9184;54.390;18.620;2023-08-01T00:54:16;7.25;;;5.25;;
18114;SDS011;9184;54.390;18.620;2023-08-01T00:54:47;6.38;;;5.05;;
18114;SDS011;9184;54.390;18.620;2023-08-01T00:55:18;10.32;;;5.22;;
18114;SDS011;9184;54.390;18.620;2023-08-01T00:55:50;8.07;;;5.05;;
18114;SDS011;9184;54.390;18.620;2023-08-01T00:56:21;11.13;;;5.10;;
18114;SDS011;9184;54.390;18.620;2023-08-01T00:56:52;8.40;;;4.50;;
18114;SDS011;9184;54.390;18.620;2023-08-01T00:57:22;7.15;;;4.88;;
18114;SDS011;9184;54.390;18.620;2023-08-01T00:57:54;7.20;;;4.63;;
18114;SDS011;9184;54.390;18.620;2023-08-01T00:58:24;5.70;;;4.70;;
18114;SDS011;9184;54.390;18.620;2023-08-01T00:58:54;7.75;;;5.20;;
18114;SDS011;9184;54.390;18.620;2023-08-01T00:59:25;10.52;;;4.93;;
18114;SDS011;9184;54.390;18.620;2023-08-01T00:59:56;8.52;;;5.07;;
18114;SDS011;9184;54.390;18.620;2023-08-01T01:00:27;6.95;;;5.10;;
18114;SDS011;9184;54.390;18.620;2023-08-01T01:00:57;13.05;;;5.00;;
18114;SDS011;9184;54.390;18.620;2023-08-01T01:01:29;10.48;;;5.22;;
18114;SDS011;9184;54.390;18.620;2023-08-01T01:02:01;7.03;;;5.18;;
18114;SDS011;9184;54.390;18.620;2023-08-01T01:02:31;8.70;;;5.00;;
18114;SDS011;9184;54.390;18.620;2023-08-01T01:03:02;7.60;;;4.85;;
18114;SDS011;9184;54.390;18.620;2023-08-01T01:03:32;9.73;;;5.35;;
18114;SDS011;9184;54.390;18.620;2023-08-01T01:04:04;9.43;;;5.00;;
18114;SDS011;9184;54.390;18.620;2023-08-01T01:04:34;7.45;;;4.88;;
18114;SDS011;9184;54.390;18.620;2023-08-01T01:05:05;10.82;;;4.97;;
18114;SDS011;9184;54.390;18.620;2023-08-01T01:05:36;7.93;;;5.03;;
18114;SDS011;9184;54.390;18.620;2023-08-01T01:06:11;7.25;;;4.57;;
18114;SDS011;9184;54.390;18.620;2023-08-01T01:06:44;9.55;;;5.05;;
18114;SDS011;9184;54.390;18.620;2023-08-01T01:07:15;10.23;;;4.78;;
18114;SDS011;9184;54.390;18.620;2023-08-01T01:07:47;4.90;;;4.25;;
18114;SDS011;9184;54.390;18.620;2023-08-01T01:08:20;6.63;;;4.70;;
18114;SDS011;9184;54.390;18.620;2023-08-01T01:08:50;7.82;;;4.43;;
18114;SDS011;9184;54.390;18.620;2023-08-01T01:09:21;6.43;;;4.88;;
18114;SDS011;9184;54.390;18.620;2023-08-01T01:09:51;10.30;;;4.78;;
18114;SDS011;9184;54.390;18.620;2023-08-01T01:10:23;5.55;;;4.55;;
18114;SDS011;9184;54.390;18.620;2023-08-01T01:10:55;7.10;;;4.68;;
18114;SDS011;9184;54.390;18.620;2023-08-01T01:11:25;6.03;;;4.30;;
18114;SDS011;9184;54.390;18.620;2023-08-01T01:11:56;7.35;;;4.38;;
18114;SDS011;9184;54.390;18.620;2023-08-01T01:12:27;5.88;;;3.90;;
18114;SDS011;9184;54.390;18.620;2023-08-01T01:12:57;9.57;;;4.60;;
18114;SDS011;9184;54.390;18.620;2023-08-01T01:13:28;5.43;;;3.88;;
18114;SDS011;9184;54.390;18.620;2023-08-01T01:13:59;6.70;;;4.78;;
18114;SDS011;9184;54.390;18.620;2023-08-01T01:14:30;6.82;;;4.30;;
18114;SDS011;9184;54.390;18.620;2023-08-01T01:15:00;7.55;;;4.60;;
18114;SDS011;9184;54.390;18.620;2023-08-01T01:15:31;5.55;;;4.40;;
18114;SDS011;9184;54.390;18.620;2023-08-01T01:16:02;10.73;;;4.18;;
18114;SDS011;9184;54.390;18.620;2023-08-01T01:16:33;7.00;;;4.00;;
18114;SDS011;9184;54.390;18.620;2023-08-01T01:17:04;8.13;;;4.13;;
18114;SDS011;9184;54.390;18.620;2023-08-01T01:17:34;6.28;;;3.88;;
18114;SDS011;9184;54.390;18.620;2023-08-01T01:18:05;7.40;;;4.38;;
18114;SDS011;9184;54.390;18.620;2023-08-01T01:18:36;10.30;;;4.20;;
18114;SDS011;9184;54.390;18.620;2023-08-01T01:19:07;5.22;;;3.88;;
18114;SDS011;9184;54.390;18.620;2023-08-01T01:19:38;6.05;;;3.65;;
18114;SDS011;9184;54.390;18.620;2023-08-01T01:20:09;4.97;;;3.88;;
18114;SDS011;9184;54.390;18.620;2023-08-01T01:20:42;5.78;;;4.07;;
18114;SDS011;9184;54.390;18.620;2023-08-01T01:21:13;7.88;;;4.38;;
18114;SDS011;9184;54.390;18.620;2023-08-01T01:21:43;6.80;;;4.40;;
18114;SDS011;9184;54.390;18.620;2023-08-01T01:22:15;4.78;;;3.85;;
18114;SDS011;9184;54.390;18.620;2023-08-01T01:22:46;5.90;;;4.00;;
18114;SDS011;9184;54.390;18.620;2023-08-01T01:23:18;6.38;;;3.85;;
18114;SDS011;9184;54.390;18.620;2023-08-01T01:23:49;5.00;;;3.40;;
18114;SDS011;9184;54.390;18.620;2023-08-01T01:24:21;8.00;;;3.90;;
18114;SDS011;9184;54.390;18.620;2023-08-01T01:24:52;5.30;;;3.25;;
18114;SDS011;9184;54.390;18.620;2023-08-01T01:25:23;6.72;;;3.70;;
18114;SDS011;9184;54.390;18.620;2023-08-01T01:25:55;7.45;;;3.83;;
18114;SDS011;9184;54.390;18.620;2023-08-01T01:26:27;4.50;;;3.50;;
18114;SDS011;9184;54.390;18.620;2023-08-01T01:26:58;7.32;;;3.80;;
18114;SDS011;9184;54.390;18.620;2023-08-01T01:27:29;3.70;;;3.25;;
18114;SDS011;9184;54.390;18.620;2023-08-01T01:28:00;7.18;;;3.40;;
18114;SDS011;9184;54.390;18.620;2023-08-01T01:28:34;4.43;;;3.10;;
18114;SDS011;9184;54.390;18.620;2023-08-01T01:29:06;5.60;;;3.33;;
18114;SDS011;9184;54.390;18.620;2023-08-01T01:29:38;7.03;;;3.35;;
18114;SDS011;9184;54.390;18.620;2023-08-01T01:30:09;6.15;;;3.40;;
18114;SDS011;9184;54.390;18.620;2023-08-01T01:30:41;5.72;;;3.28;;
18114;SDS011;9184;54.390;18.620;2023-08-01T01:31:12;5.18;;;3.45;;
18114;SDS011;9184;54.390;18.620;2023-08-01T01:31:43;5.30;;;3.30;;
18114;SDS011;9184;54.390;18.620;2023-08-01T01:32:13;5.25;;;3.17;;
18114;SDS011;9184;54.390;18.620;2023-08-01T01:32:45;4.95;;;4.07;;
18114;SDS011;9184;54.390;18.620;2023-08-01T01:33:17;5.47;;;3.30;;
18114;SDS011;9184;54.390;18.620;2023-08-01T01:33:47;6.10;;;3.33;;
18114;SDS011;9184;54.390;18.620;2023-08-01T01:34:18;3.72;;;3.08;;
18114;SDS011;9184;54.390;18.620;2023-08-01T01:34:50;3.75;;;3.22;;
18114;SDS011;9184;54.390;18.620;2023-08-01T01:35:21;6.13;;;3.67;;
18114;SDS011;9184;54.390;18.620;2023-08-01T01:35:53;3.55;;;3.10;;
18114;SDS011;9184;54.390;18.620;2023-08-01T01:36:25;5.88;;;3.75;;
18114;SDS011;9184;54.390;18.620;2023-08-01T01:36:55;5.35;;;2.92;;
18114;SDS011;9184;54.390;18.620;2023-08-01T01:37:26;5.20;;;3.53;;
18114;SDS011;9184;54.390;18.620;2023-08-01T01:37:56;4.93;;;3.63;;
18114;SDS011;9184;54.390;18.620;2023-08-01T01:38:28;5.13;;;3.35;;
18114;SDS011;9184;54.390;18.620;2023-08-01T01:38:59;5.93;;;3.50;;
18114;SDS011;9184;54.390;18.620;2023-08-01T01:39:30;6.18;;;3.70;;
18114;SDS011;9184;54.390;18.620;2023-08-01T01:40:01;4.80;;;3.45;;
18114;SDS011;9184;54.390;18.620;2023-08-01T01:40:32;8.25;;;3.95;;
18114;SDS011;9184;54.390;18.620;2023-08-01T01:41:02;6.60;;;3.67;;
18114;SDS011;9184;54.390;18.620;2023-08-01T01:41:34;4.03;;;3.20;;
18114;SDS011;9184;54.390;18.620;2023-08-01T01:42:06;6.07;;;4.18;;
18114;SDS011;9184;54.390;18.620;2023-08-01T01:42:36;5.90;;;3.67;;
18114;SDS011;9184;54.390;18.620;2023-08-01T01:43:07;4.50;;;3.67;;
18114;SDS011;9184;54.390;18.620;2023-08-01T01:43:38;4.22;;;3.33;;
18114;SDS011;9184;54.390;18.620;2023-08-01T01:44:09;5.47;;;3.22;;
18114;SDS011;9184;54.390;18.620;2023-08-01T01:44:39;6.30;;;3.30;;
18114;SDS011;9184;54.390;18.620;2023-08-01T01:45:10;6.32;;;3.60;;
18114;SDS011;9184;54.390;18.620;2023-08-01T01:45:41;6.82;;;3.60;;
18114;SDS011;9184;54.390;18.620;2023-08-01T01:46:13;5.70;;;3.22;;
18114;SDS011;9184;54.390;18.620;2023-08-01T01:46:44;4.53;;;3.38;;
18114;SDS011;9184;54.390;18.620;2023-08-01T01:47:16;6.20;;;3.58;;
18114;SDS011;9184;54.390;18.620;2023-08-01T01:47:47;9.20;;;3.67;;
18114;SDS011;9184;54.390;18.620;2023-08-01T01:48:17;4.47;;;3.75;;
18114;SDS011;9184;54.390;18.620;2023-08-01T01:48:48;7.80;;;3.85;;
18114;SDS011;9184;54.390;18.620;2023-08-01T01:49:19;5.35;;;3.72;;
18114;SDS011;9184;54.390;18.620;2023-08-01T01:49:50;6.57;;;3.63;;
18114;SDS011;9184;54.390;18.620;2023-08-01T01:50:21;6.80;;;3.63;;
18114;SDS011;9184;54.390;18.620;2023-08-01T01:50:53;7.20;;;3.42;;
18114;SDS011;9184;54.390;18.620;2023-08-01T01:51:25;10.73;;;4.28;;
18114;SDS011;9184;54.390;18.620;2023-08-01T01:51:55;5.68;;;3.78;;
18114;SDS011;9184;54.390;18.620;2023-08-01T01:52:26;4.95;;;3.53;;
18114;SDS011;9184;54.390;18.620;2023-08-01T01:52:56;7.18;;;3.97;;
18114;SDS011;9184;54.390;18.620;2023-08-01T01:53:28;5.00;;;3.30;;
18114;SDS011;9184;54.390;18.620;2023-08-01T01:53:58;5.90;;;3.53;;
18114;SDS011;9184;54.390;18.620;2023-08-01T01:54:29;5.97;;;3.63;;
18114;SDS011;9184;54.390;18.620;2023-08-01T01:54:59;10.05;;;3.90;;
18114;SDS011;9184;54.390;18.620;2023-08-01T01:55:31;6.63;;;3.80;;
18114;SDS011;9184;54.390;18.620;2023-08-01T01:56:01;6.18;;;4.00;;
18114;SDS011;9184;54.390;18.620;2023-08-01T01:56:32;8.32;;;3.80;;
18114;SDS011;9184;54.390;18.620;2023-08-01T01:57:03;6.60;;;4.03;;
18114;SDS011;9184;54.390;18.620;2023-08-01T01:57:35;4.93;;;3.97;;
18114;SDS011;9184;54.390;18.620;2023-08-01T01:58:07;5.55;;;3.97;;
18114;SDS011;9184;54.390;18.620;2023-08-01T01:58:37;6.03;;;3.72;;
18114;SDS011;9184;54.390;18.620;2023-08-01T01:59:07;5.80;;;3.92;;
18114;SDS011;9184;54.390;18.620;2023-08-01T01:59:39;4.70;;;3.67;;
18114;SDS011;9184;54.390;18.620;2023-08-01T02:00:10;7.55;;;4.13;;
18114;SDS011;9184;54.390;18.620;2023-08-01T02:02:39;6.20;;;4.10;;
18114;SDS011;9184;54.390;18.620;2023-08-01T02:03:09;10.38;;;4.53;;
18114;SDS011;9184;54.390;18.620;2023-08-01T02:03:40;6.68;;;3.80;;
18114;SDS011;9184;54.390;18.620;2023-08-01T02:04:10;5.05;;;3.92;;
18114;SDS011;9184;54.390;18.620;2023-08-01T02:04:42;8.30;;;4.65;;
18114;SDS011;9184;54.390;18.620;2023-08-01T02:05:13;6.25;;;4.05;;
18114;SDS011;9184;54.390;18.620;2023-08-01T02:05:44;6.78;;;4.10;;
18114;SDS011;9184;54.390;18.620;2023-08-01T02:06:16;6.32;;;4.53;;
18114;SDS011;9184;54.390;18.620;2023-08-01T02:06:48;8.65;;;3.88;;
18114;SDS011;9184;54.390;18.620;2023-08-01T02:07:18;6.82;;;4.43;;
18114;SDS011;9184;54.390;18.620;2023-08-01T02:07:49;5.72;;;3.95;;
18114;SDS011;9184;54.390;18.620;2023-08-01T02:08:19;5.47;;;3.97;;
18114;SDS011;9184;54.390;18.620;2023-08-01T02:08:51;7.22;;;4.47;;
18114;SDS011;9184;54.390;18.620;2023-08-01T02:09:21;6.63;;;4.20;;
18114;SDS011;9184;54.390;18.620;2023-08-01T02:09:52;6.55;;;3.83;;
18114;SDS011;9184;54.390;18.620;2023-08-01T02:10:23;6.28;;;4.50;;
18114;SDS011;9184;54.390;18.620;2023-08-01T02:10:54;7.43;;;4.22;;
18114;SDS011;9184;54.390;18.620;2023-08-01T02:11:25;7.18;;;4.20;;
18114;SDS011;9184;54.390;18.620;2023-08-01T02:11:55;7.43;;;4.05;;
18114;SDS011;9184;54.390;18.620;2023-08-01T02:12:26;6.28;;;3.92;;
18114;SDS011;9184;54.390;18.620;2023-08-01T02:12:57;8.18;;;4.63;;
18114;SDS011;9184;54.390;18.620;2023-08-01T02:13:28;8.80;;;4.15;;
18114;SDS011;9184;54.390;18.620;2023-08-01T02:13:59;7.07;;;3.97;;
18114;SDS011;9184;54.390;18.620;2023-08-01T02:14:29;6.03;;;4.45;;
18114;SDS011;9184;54.390;18.620;2023-08-01T02:15:01;8.05;;;4.75;;
18114;SDS011;9184;54.390;18.620;2023-08-01T02:15:31;10.05;;;4.57;;
18114;SDS011;9184;54.390;18.620;2023-08-01T02:16:02;5.60;;;3.72;;
18114;SDS011;9184;54.390;18.620;2023-08-01T02:16:32;9.38;;;4.47;;
18114;SDS011;9184;54.390;18.620;2023-08-01T02:17:04;8.38;;;3.95;;
18114;SDS011;9184;54.390;18.620;2023-08-01T02:17:35;7.78;;;4.57;;
18114;SDS011;9184;54.390;18.620;2023-08-01T02:18:05;8.98;;;4.53;;
18114;SDS011;9184;54.390;18.620;2023-08-01T02:18:36;5.30;;;4.15;;
18114;SDS011;9184;54.390;18.620;2023-08-01T02:19:08;6.63;;;4.35;;
18114;SDS011;9184;54.390;18.620;2023-08-01T02:19:38;8.38;;;4.60;;
18114;SDS011;9184;54.390;18.620;2023-08-01T02:20:09;4.53;;;4.03;;
18114;SDS011;9184;54.390;18.620;2023-08-01T02:20:40;5.97;;;4.65;;
18114;SDS011;9184;54.390;18.620;2023-08-01T02:21:11;10.02;;;5.03;;
18114;SDS011;9184;54.390;18.620;2023-08-01T02:21:43;6.28;;;4.05;;
18114;SDS011;9184;54.390;18.620;2023-08-01T02:22:13;6.80;;;4.22;;
18114;SDS011;9184;54.390;18.620;2023-08-01T02:22:44;8.68;;;4.93;;
18114;SDS011;9184;54.390;18.620;2023-08-01T02:23:15;5.78;;;3.95;;
18114;SDS011;9184;54.390;18.620;2023-08-01T02:23:46;6.65;;;4.72;;
18114;SDS011;9184;54.390;18.620;2023-08-01T02:24:16;8.65;;;4.85;;
18114;SDS011;9184;54.390;18.620;2023-08-01T02:24:47;7.82;;;4.55;;
18114;SDS011;9184;54.390;18.620;2023-08-01T02:25:17;6.13;;;4.30;;
18114;SDS011;9184;54.390;18.620;2023-08-01T02:25:49;5.40;;;4.25;;
18114;SDS011;9184;54.390;18.620;2023-08-01T02:26:19;6.72;;;4.43;;
18114;SDS011;9184;54.390;18.620;2023-08-01T02:26:52;9.07;;;3.90;;
18114;SDS011;9184;54.390;18.620;2023-08-01T02:27:23;6.03;;;4.30;;
18114;SDS011;9184;54.390;18.620;2023-08-01T02:27:54;6.53;;;4.18;;
18114;SDS011;9184;54.390;18.620;2023-08-01T02:28:25;7.57;;;4.43;;
18114;SDS011;9184;54.390;18.620;2023-08-01T02:28:55;6.72;;;4.82;;
18114;SDS011;9184;54.390;18.620;2023-08-01T02:29:26;6.13;;;4.90;;
18114;SDS011;9184;54.390;18.620;2023-08-01T02:29:57;7.00;;;4.82;;
18114;SDS011;9184;54.390;18.620;2023-08-01T02:30:28;6.63;;;4.35;;
18114;SDS011;9184;54.390;18.620;2023-08-01T02:30:59;9.55;;;4.70;;
18114;SDS011;9184;54.390;18.620;2023-08-01T02:31:29;8.15;;;4.28;;
18114;SDS011;9184;54.390;18.620;2023-08-01T02:32:01;8.82;;;4.65;;
18114;SDS011;9184;54.390;18.620;2023-08-01T02:32:32;9.75;;;4.47;;
18114;SDS011;9184;54.390;18.620;2023-08-01T02:33:02;9.63;;;5.88;;
18114;SDS011;9184;54.390;18.620;2023-08-01T02:33:33;5.97;;;4.57;;
18114;SDS011;9184;54.390;18.620;2023-08-01T02:34:05;7.55;;;4.45;;
18114;SDS011;9184;54.390;18.620;2023-08-01T02:34:35;7.40;;;4.65;;
18114;SDS011;9184;54.390;18.620;2023-08-01T02:35:06;8.05;;;4.70;;
18114;SDS011;9184;54.390;18.620;2023-08-01T02:35:37;12.25;;;5.05;;
18114;SDS011;9184;54.390;18.620;2023-08-01T02:36:07;6.75;;;4.70;;
18114;SDS011;9184;54.390;18.620;2023-08-01T02:36:39;9.63;;;4.88;;
18114;SDS011;9184;54.390;18.620;2023-08-01T02:37:11;8.43;;;4.75;;
18114;SDS011;9184;54.390;18.620;2023-08-01T02:37:42;8.52;;;4.90;;
18114;SDS011;9184;54.390;18.620;2023-08-01T02:38:13;9.68;;;5.47;;
18114;SDS011;9184;54.390;18.620;2023-08-01T02:38:44;7.45;;;5.10;;
18114;SDS011;9184;54.390;18.620;2023-08-01T02:39:15;9.95;;;5.05;;
18114;SDS011;9184;54.390;18.620;2023-08-01T02:39:46;6.15;;;4.30;;
18114;SDS011;9184;54.390;18.620;2023-08-01T02:40:16;6.18;;;4.32;;
18114;SDS011;9184;54.390;18.620;2023-08-01T02:40:48;8.48;;;4.90;;
18114;SDS011;9184;54.390;18.620;2023-08-01T02:41:19;7.28;;;4.82;;
18114;SDS011;9184;54.390;18.620;2023-08-01T02:41:49;8.57;;;4.40;;
18114;SDS011;9184;54.390;18.620;2023-08-01T02:42:21;7.72;;;4.72;;
18114;SDS011;9184;54.390;18.620;2023-08-01T02:42:52;10.05;;;5.22;;
18114;SDS011;9184;54.390;18.620;2023-08-01T02:43:22;6.50;;;4.72;;
18114;SDS011;9184;54.390;18.620;2023-08-01T02:43:54;9.10;;;4.85;;
18114;SDS011;9184;54.390;18.620;2023-08-01T02:44:26;6.93;;;4.60;;
18114;SDS011;9184;54.390;18.620;2023-08-01T02:44:57;11.23;;;5.40;;
18114;SDS011;9184;54.390;18.620;2023-08-01T02:45:28;8.45;;;4.97;;
18114;SDS011;9184;54.390;18.620;2023-08-01T02:45:59;6.97;;;4.70;;
18114;SDS011;9184;54.390;18.620;2023-08-01T02:46:31;9.32;;;5.00;;
18114;SDS011;9184;54.390;18.620;2023-08-01T02:47:02;7.55;;;5.03;;
18114;SDS011;9184;54.390;18.620;2023-08-01T02:47:32;9.43;;;5.15;;
18114;SDS011;9184;54.390;18.620;2023-08-01T02:48:04;9.00;;;4.95;;
18114;SDS011;9184;54.390;18.620;2023-08-01T02:48:34;10.70;;;4.95;;
18114;SDS011;9184;54.390;18.620;2023-08-01T02:49:05;8.40;;;5.40;;
18114;SDS011;9184;54.390;18.620;2023-08-01T02:49:37;9.65;;;4.60;;
18114;SDS011;9184;54.390;18.620;2023-08-01T02:52:31;7.63;;;4.68;;
18114;SDS011;9184;54.390;18.620;2023-08-01T02:53:04;10.27;;;4.88;;
18114;SDS011;9184;54.390;18.620;2023-08-01T02:53:34;7.38;;;5.43;;
18114;SDS011;9184;54.390;18.620;2023-08-01T02:54:05;10.73;;;4.68;;
18114;SDS011;9184;54.390;18.620;2023-08-01T02:54:35;8.68;;;4.45;;
18114;SDS011;9184;54.390;18.620;2023-08-01T02:55:07;11.15;;;6.00;;
18114;SDS011;9184;54.390;18.620;2023-08-01T02:55:37;7.47;;;5.30;;
18114;SDS011;9184;54.390;18.620;2023-08-01T02:56:08;10.80;;;5.53;;
18114;SDS011;9184;54.390;18.620;2023-08-01T02:56:40;7.20;;;5.10;;
18114;SDS011;9184;54.390;18.620;2023-08-01T02:57:11;9.35;;;5.35;;
18114;SDS011;9184;54.390;18.620;2023-08-01T02:57:41;7.05;;;4.65;;
18114;SDS011;9184;54.390;18.620;2023-08-01T02:58:12;7.47;;;4.40;;
18114;SDS011;9184;54.390;18.620;2023-08-01T02:58:43;7.78;;;4.72;;
18114;SDS011;9184;54.390;18.620;2023-08-01T02:59:14;6.53;;;4.72;;
18114;SDS011;9184;54.390;18.620;2023-08-01T02:59:44;7.63;;;5.10;;
18114;SDS011;9184;54.390;18.620;2023-08-01T03:00:15;8.48;;;5.03;;
18114;SDS011;9184;54.390;18.620;2023-08-01T03:00:47;6.72;;;4.85;;
18114;SDS011;9184;54.390;18.620;2023-08-01T03:01:18;7.57;;;4.78;;
18114;SDS011;9184;54.390;18.620;2023-08-01T03:01:49;10.20;;;5.57;;
18114;SDS011;9184;54.390;18.620;2023-08-01T03:02:20;7.60;;;4.80;;
18114;SDS011;9184;54.390;18.620;2023-08-01T03:02:53;7.82;;;4.70;;
18114;SDS011;9184;54.390;18.620;2023-08-01T03:03:24;9.43;;;4.78;;
18114;SDS011;9184;54.390;18.620;2023-08-01T03:03:55;7.13;;;5.03;;
18114;SDS011;9184;54.390;18.620;2023-08-01T03:04:25;6.60;;;4.63;;
18114;SDS011;9184;54.390;18.620;2023-08-01T03:04:57;10.57;;;5.13;;
18114;SDS011;9184;54.390;18.620;2023-08-01T03:05:27;6.85;;;4.63;;
18114;SDS011;9184;54.390;18.620;2023-08-01T03:05:58;8.30;;;5.15;;
18114;SDS011;9184;54.390;18.620;2023-08-01T03:06:29;5.80;;;4.32;;
18114;SDS011;9184;54.390;18.620;2023-08-01T03:07:01;9.10;;;4.70;;
18114;SDS011;9184;54.390;18.620;2023-08-01T03:07:33;8.38;;;4.55;;
18114;SDS011;9184;54.390;18.620;2023-08-01T03:08:03;8.27;;;5.00;;
18114;SDS011;9184;54.390;18.620;2023-08-01T03:08:34;6.07;;;5.07;;
18114;SDS011;9184;54.390;18.620;2023-08-01T03:09:05;9.05;;;4.65;;
18114;SDS011;9184;54.390;18.620;2023-08-01T03:09:38;11.32;;;4.50;;
18114;SDS011;9184;54.390;18.620;2023-08-01T03:10:08;8.20;;;5.18;;
18114;SDS011;9184;54.390;18.620;2023-08-01T03:10:41;8.80;;;5.00;;